createdAt,value
2023-02-28T00:02:32.948Z,-1.92
2023-02-28T00:05:34.822Z,-1.97
2023-02-28T00:08:37.075Z,-2.03
2023-02-28T00:11:38.958Z,-2.09
2023-02-28T00:14:40.667Z,-2.16
2023-02-28T00:17:42.260Z,-2.20
2023-02-28T00:20:44.028Z,-2.23
2023-02-28T00:23:45.819Z,-2.25
2023-02-28T00:26:47.363Z,-2.26
2023-02-28T00:29:49.417Z,-2.27
2023-02-28T00:32:51.720Z,-2.29
2023-02-28T00:35:53.447Z,-2.31
2023-02-28T00:38:54.930Z,-2.35
2023-02-28T00:41:56.496Z,-2.39
2023-02-28T00:44:58.155Z,-2.43
2023-02-28T00:47:59.822Z,-2.49
2023-02-28T00:51:01.882Z,-2.56
2023-02-28T00:54:03.822Z,-2.62
2023-02-28T00:57:05.355Z,-2.69
2023-02-28T01:00:08.713Z,-2.76
2023-02-28T01:03:10.346Z,-2.83
2023-02-28T01:06:12.070Z,-2.90
2023-02-28T01:09:14.380Z,-2.98
2023-02-28T01:12:16.846Z,-3.06
2023-02-28T01:15:18.631Z,-3.14
2023-02-28T01:18:21.670Z,-3.23
2023-02-28T01:21:23.408Z,-3.32
2023-02-28T01:24:25.734Z,-3.40
2023-02-28T01:27:27.642Z,-3.47
2023-02-28T01:30:29.253Z,-3.53
2023-02-28T01:33:31.316Z,-3.60
2023-02-28T01:36:32.945Z,-3.65
2023-02-28T01:39:34.587Z,-3.69
2023-02-28T01:42:36.108Z,-3.71
2023-02-28T01:45:38.210Z,-3.74
2023-02-28T01:48:43.951Z,-3.76
2023-02-28T01:51:48.631Z,-3.77
2023-02-28T01:54:53.389Z,-3.79
2023-02-28T01:58:01.470Z,-3.80
2023-02-28T02:01:03.160Z,-3.81
2023-02-28T02:04:05.065Z,-3.83
2023-02-28T02:07:06.678Z,-3.85
2023-02-28T02:10:32.496Z,-3.88
2023-02-28T02:14:19.188Z,-3.92
2023-02-28T02:17:30.267Z,-3.94
2023-02-28T02:21:05.953Z,-3.96
2023-02-28T02:24:44.848Z,-4.01
2023-02-28T02:28:11.436Z,-4.07
2023-02-28T02:31:42.135Z,-4.13
2023-02-28T02:35:30.676Z,-4.18
2023-02-28T02:38:35.201Z,-4.25
2023-02-28T02:41:53.229Z,-4.30
2023-02-28T02:45:02.770Z,-4.36
2023-02-28T02:48:07.975Z,-4.41
2023-02-28T02:51:15.759Z,-4.44
2023-02-28T02:54:22.046Z,-4.48
2023-02-28T02:57:33.142Z,-4.52
2023-02-28T03:00:44.766Z,-4.57
2023-02-28T03:03:49.480Z,-4.62
2023-02-28T03:06:52.325Z,-4.64
2023-02-28T03:09:55.853Z,-4.68
2023-02-28T03:13:27.527Z,-4.71
2023-02-28T03:17:03.666Z,-4.77
2023-02-28T03:20:29.201Z,-4.81
2023-02-28T03:23:40.002Z,-4.85
2023-02-28T03:26:45.042Z,-4.89
2023-02-28T03:29:51.681Z,-4.94
2023-02-28T03:32:59.511Z,-4.98
2023-02-28T03:36:09.443Z,-5.02
2023-02-28T03:39:57.128Z,-5.07
2023-02-28T03:43:04.939Z,-5.11
2023-02-28T03:46:11.427Z,-5.14
2023-02-28T03:49:18.825Z,-5.18
2023-02-28T03:52:24.220Z,-5.23
2023-02-28T03:55:26.415Z,-5.26
2023-02-28T03:58:38.786Z,-5.27
2023-02-28T04:01:44.017Z,-5.28
2023-02-28T04:04:45.760Z,-5.28
2023-02-28T04:07:47.862Z,-5.30
2023-02-28T04:10:57.332Z,-5.30
2023-02-28T04:13:59.281Z,-5.33
2023-02-28T04:17:04.196Z,-5.35
2023-02-28T04:20:06.300Z,-5.36
2023-02-28T04:23:07.958Z,-5.37
2023-02-28T04:26:09.570Z,-5.39
2023-02-28T04:29:13.586Z,-5.42
2023-02-28T04:32:15.363Z,-5.44
2023-02-28T04:35:17.006Z,-5.46
2023-02-28T04:38:18.693Z,-5.48
2023-02-28T04:41:20.806Z,-5.51
2023-02-28T04:44:23.366Z,-5.53
2023-02-28T04:47:24.944Z,-5.55
2023-02-28T04:50:26.484Z,-5.57
2023-02-28T04:53:29.057Z,-5.58
2023-02-28T04:56:30.730Z,-5.58
2023-02-28T04:59:32.464Z,-5.57
2023-02-28T05:02:36.060Z,-5.59
2023-02-28T05:05:37.781Z,-5.70
2023-02-28T05:08:40.131Z,-5.87
2023-02-28T05:11:42.455Z,-6.05
2023-02-28T05:14:44.098Z,-6.20
2023-02-28T05:17:45.739Z,-6.30
2023-02-28T05:20:47.421Z,-6.37
2023-02-28T05:23:48.948Z,-6.45
2023-02-28T05:26:53.363Z,-6.49
2023-02-28T05:29:54.904Z,-6.50
2023-02-28T05:32:56.600Z,-6.50
2023-02-28T05:35:58.169Z,-6.51
2023-02-28T05:38:59.782Z,-6.45
2023-02-28T05:42:01.471Z,-6.39
2023-02-28T05:45:04.148Z,-6.25
2023-02-28T05:48:06.099Z,-6.03
2023-02-28T05:51:09.136Z,-5.78
2023-02-28T05:54:12.878Z,-5.58
2023-02-28T05:57:24.452Z,-5.41
2023-02-28T06:00:26.542Z,-5.25
2023-02-28T06:03:28.582Z,-5.19
2023-02-28T06:06:30.583Z,-5.02
2023-02-28T06:09:32.287Z,-4.71
2023-02-28T06:12:33.895Z,-4.26
2023-02-28T06:15:35.434Z,-3.58
2023-02-28T06:18:37.228Z,-3.04
2023-02-28T06:21:41.092Z,-2.82
2023-02-28T06:24:43.105Z,-2.65
2023-02-28T06:27:44.929Z,-2.48
2023-02-28T06:30:46.781Z,-2.58
2023-02-28T06:33:49.193Z,-2.54
2023-02-28T06:36:52.787Z,-2.20
2023-02-28T06:39:55.472Z,-2.00
2023-02-28T06:42:56.977Z,-2.11
2023-02-28T06:45:59.757Z,-1.67
2023-02-28T06:49:01.283Z,-1.28
2023-02-28T06:52:02.982Z,-1.24
2023-02-28T06:55:08.723Z,-1.13
2023-02-28T06:58:10.394Z,-1.31
2023-02-28T07:01:11.972Z,-1.58
2023-02-28T07:04:13.820Z,-1.76
2023-02-28T07:07:15.489Z,-1.93
2023-02-28T07:10:19.694Z,-2.17
2023-02-28T07:13:22.660Z,-2.08
2023-02-28T07:16:25.696Z,-1.77
2023-02-28T07:19:27.514Z,-1.62
2023-02-28T07:22:29.184Z,-1.42
2023-02-28T07:25:31.034Z,-1.07
2023-02-28T07:28:32.610Z,-1.26
2023-02-28T07:31:34.174Z,-1.25
2023-02-28T07:34:35.852Z,-1.14
2023-02-28T07:37:37.467Z,-1.06
2023-02-28T07:40:39.114Z,-1.04
2023-02-28T07:43:40.791Z,-1.24
2023-02-28T07:46:42.592Z,-1.42
2023-02-28T07:49:44.203Z,-1.53
2023-02-28T07:52:45.738Z,-1.64
2023-02-28T07:55:47.516Z,-1.64
2023-02-28T07:58:49.169Z,-1.54
2023-02-28T08:01:52.159Z,-1.62
2023-02-28T08:04:53.803Z,-1.65
2023-02-28T08:07:55.473Z,-1.54
2023-02-28T08:10:59.521Z,-1.17
2023-02-28T08:14:01.246Z,-0.61
2023-02-28T08:17:02.747Z,-0.14
2023-02-28T08:20:04.636Z,0.35
2023-02-28T08:23:06.150Z,1.62
2023-02-28T08:26:07.855Z,2.58
2023-02-28T08:29:09.422Z,3.32
2023-02-28T08:32:27.216Z,3.85
2023-02-28T08:35:30.522Z,3.56
2023-02-28T08:38:32.266Z,3.30
2023-02-28T08:41:34.712Z,3.67
2023-02-28T08:44:36.357Z,3.62
2023-02-28T08:47:37.840Z,3.68
2023-02-28T08:50:39.344Z,2.96
2023-02-28T08:53:41.423Z,2.91
2023-02-28T08:56:43.187Z,3.62
2023-02-28T08:59:44.804Z,3.88
2023-02-28T09:02:47.814Z,4.08
2023-02-28T09:06:07.714Z,4.96
2023-02-28T09:09:09.601Z,5.65
2023-02-28T09:12:11.294Z,5.62
2023-02-28T09:15:12.815Z,5.54
2023-02-28T09:18:15.310Z,6.00
2023-02-28T09:21:18.747Z,6.08
2023-02-28T09:24:20.360Z,5.57
2023-02-28T09:27:21.920Z,5.16
2023-02-28T09:30:23.589Z,4.90
2023-02-28T09:33:26.303Z,4.37
2023-02-28T09:36:41.509Z,4.19
2023-02-28T09:39:45.736Z,4.27
2023-02-28T09:42:49.320Z,4.54
2023-02-28T09:45:58.306Z,4.37
2023-02-28T09:49:03.817Z,4.39
2023-02-28T09:52:10.465Z,4.61
2023-02-28T09:55:23.616Z,4.31
2023-02-28T09:58:38.481Z,5.59
2023-02-28T10:01:40.822Z,6.77
2023-02-28T10:04:58.546Z,6.58
2023-02-28T10:08:14.217Z,7.27
2023-02-28T10:11:17.605Z,7.34
2023-02-28T10:14:25.621Z,7.57
2023-02-28T10:17:29.534Z,8.50
2023-02-28T10:20:34.607Z,9.30
2023-02-28T10:23:38.065Z,9.77
2023-02-28T10:26:40.454Z,8.79
2023-02-28T10:29:47.390Z,9.20
2023-02-28T10:32:51.799Z,10.26
2023-02-28T10:35:54.149Z,10.75
2023-02-28T10:38:55.859Z,11.13
2023-02-28T10:41:57.404Z,11.52
2023-02-28T10:45:15.847Z,11.08
2023-02-28T10:48:17.495Z,10.23
2023-02-28T10:51:20.478Z,10.68
2023-02-28T10:54:37.521Z,11.23
2023-02-28T10:57:39.044Z,11.87
2023-02-28T11:00:41.084Z,12.34
2023-02-28T11:03:43.014Z,12.66
2023-02-28T11:06:44.734Z,12.77
2023-02-28T11:09:49.283Z,12.44
2023-02-28T11:12:53.306Z,12.24
2023-02-28T11:16:00.437Z,12.75
2023-02-28T11:19:02.914Z,12.74
2023-02-28T11:22:05.598Z,12.96
2023-02-28T11:25:20.529Z,12.80
2023-02-28T11:28:28.034Z,12.56
2023-02-28T11:31:30.029Z,12.84
2023-02-28T11:34:32.804Z,12.60
2023-02-28T11:37:34.489Z,11.98
2023-02-28T11:40:46.189Z,12.45
2023-02-28T11:43:59.978Z,12.83
2023-02-28T11:47:15.651Z,12.59
2023-02-28T11:50:40.967Z,12.04
2023-02-28T11:53:53.084Z,11.68
2023-02-28T11:57:09.406Z,11.88
2023-02-28T12:00:54.037Z,12.30
2023-02-28T12:04:33.606Z,10.82
2023-02-28T12:08:00.373Z,9.74
2023-02-28T12:11:20.691Z,8.45
2023-02-28T12:14:25.612Z,7.51
2023-02-28T12:17:48.947Z,7.31
2023-02-28T12:20:55.440Z,7.22
2023-02-28T12:24:09.836Z,6.89
2023-02-28T12:27:16.105Z,6.55
2023-02-28T12:30:29.959Z,6.20
2023-02-28T12:33:36.346Z,6.06
2023-02-28T12:36:38.511Z,6.04
2023-02-28T12:39:50.705Z,5.96
2023-02-28T12:42:56.411Z,5.93
2023-02-28T12:46:00.629Z,5.94
2023-02-28T12:49:07.499Z,5.74
2023-02-28T12:52:12.410Z,5.39
2023-02-28T12:55:44.180Z,4.73
2023-02-28T12:59:21.931Z,4.80
2023-02-28T13:02:42.236Z,5.00
2023-02-28T13:06:16.623Z,5.18
2023-02-28T13:09:18.919Z,5.26
2023-02-28T13:12:20.622Z,5.38
2023-02-28T13:15:26.068Z,5.61
2023-02-28T13:18:45.335Z,5.74
2023-02-28T13:21:49.903Z,5.46
2023-02-28T13:24:54.263Z,5.21
2023-02-28T13:27:57.049Z,5.42
2023-02-28T13:30:58.657Z,5.66
2023-02-28T13:34:07.020Z,5.88
2023-02-28T13:37:24.393Z,5.70
2023-02-28T13:40:33.663Z,5.65
2023-02-28T13:44:02.173Z,5.74
2023-02-28T13:47:03.903Z,5.78
2023-02-28T13:50:34.965Z,5.99
2023-02-28T13:53:51.412Z,6.21
2023-02-28T13:57:31.954Z,6.18
2023-02-28T14:00:38.846Z,6.00
2023-02-28T14:04:05.614Z,5.86
2023-02-28T14:07:07.894Z,5.67
2023-02-28T14:10:37.177Z,5.52
2023-02-28T14:13:47.048Z,5.37
2023-02-28T14:16:50.199Z,5.12
2023-02-28T14:19:51.853Z,4.86
2023-02-28T14:23:15.632Z,4.66
2023-02-28T14:26:59.000Z,4.47
2023-02-28T14:30:12.940Z,4.26
2023-02-28T14:33:26.833Z,4.12
2023-02-28T14:36:33.778Z,3.99
2023-02-28T14:39:35.518Z,3.85
2023-02-28T14:42:37.682Z,3.81
2023-02-28T14:45:39.328Z,3.82
2023-02-28T14:48:40.905Z,3.75
2023-02-28T14:51:42.625Z,3.62
2023-02-28T14:54:44.962Z,3.49
2023-02-28T14:57:57.914Z,3.45
2023-02-28T15:01:01.872Z,3.51
2023-02-28T15:04:06.081Z,3.58
2023-02-28T15:07:15.226Z,3.68
2023-02-28T15:10:27.200Z,3.92
2023-02-28T15:13:39.843Z,4.49
2023-02-28T15:16:43.579Z,4.40
2023-02-28T15:19:49.466Z,4.22
2023-02-28T15:22:52.296Z,4.22
2023-02-28T15:25:54.504Z,4.02
2023-02-28T15:29:13.226Z,4.08
2023-02-28T15:32:33.641Z,4.07
2023-02-28T15:35:36.071Z,3.82
2023-02-28T15:38:37.639Z,3.76
2023-02-28T15:41:39.667Z,3.77
2023-02-28T15:44:41.275Z,3.64
2023-02-28T15:47:46.947Z,3.52
2023-02-28T15:50:52.925Z,3.46
2023-02-28T15:54:01.423Z,3.21
2023-02-28T15:57:06.442Z,2.84
2023-02-28T16:00:13.735Z,2.53
2023-02-28T16:03:29.024Z,2.27
2023-02-28T16:06:45.111Z,2.00
2023-02-28T16:09:46.813Z,1.70
2023-02-28T16:12:48.467Z,1.45
2023-02-28T16:15:50.008Z,1.17
2023-02-28T16:18:51.892Z,0.97
2023-02-28T16:21:53.442Z,0.76
2023-02-28T16:24:55.108Z,0.56
2023-02-28T16:27:56.666Z,0.38
2023-02-28T16:30:58.403Z,0.16
2023-02-28T16:34:00.196Z,-0.06
2023-02-28T16:37:01.856Z,-0.37
2023-02-28T16:40:03.694Z,-0.77
2023-02-28T16:43:08.919Z,-1.15
2023-02-28T16:46:12.532Z,-1.45
2023-02-28T16:49:14.107Z,-1.70
2023-02-28T16:52:15.987Z,-1.90
2023-02-28T16:55:17.706Z,-2.04
2023-02-28T16:58:19.441Z,-2.17
2023-02-28T17:01:21.165Z,-2.28
2023-02-28T17:04:22.798Z,-2.36
2023-02-28T17:07:24.914Z,-2.43
2023-02-28T17:10:26.964Z,-2.52
2023-02-28T17:13:28.726Z,-2.54
2023-02-28T17:16:32.957Z,-2.54
2023-02-28T17:19:35.037Z,-2.50
2023-02-28T17:22:36.526Z,-2.52
2023-02-28T17:25:38.255Z,-2.56
2023-02-28T17:28:39.971Z,-2.61
2023-02-28T17:31:41.581Z,-2.68
2023-02-28T17:34:44.320Z,-2.76
2023-02-28T17:37:46.140Z,-2.84
2023-02-28T17:40:47.627Z,-2.91
2023-02-28T17:43:49.370Z,-2.98
2023-02-28T17:46:51.559Z,-3.09
2023-02-28T17:49:53.261Z,-3.18
2023-02-28T17:52:54.957Z,-3.23
2023-02-28T17:55:56.776Z,-3.23
2023-02-28T17:58:58.592Z,-3.22
2023-02-28T18:02:01.591Z,-3.21
2023-02-28T18:05:03.293Z,-3.23
2023-02-28T18:08:05.037Z,-3.24
2023-02-28T18:11:06.581Z,-3.27
2023-02-28T18:14:08.588Z,-3.32
2023-02-28T18:17:11.310Z,-3.39
2023-02-28T18:20:13.260Z,-3.44
2023-02-28T18:23:15.275Z,-3.49
2023-02-28T18:26:18.909Z,-3.54
2023-02-28T18:29:26.274Z,-3.59
2023-02-28T18:32:29.462Z,-3.64
2023-02-28T18:35:31.864Z,-3.55
2023-02-28T18:38:33.576Z,-3.51
2023-02-28T18:41:35.361Z,-3.57
2023-02-28T18:44:37.763Z,-3.66
2023-02-28T18:47:39.491Z,-3.74
2023-02-28T18:50:41.650Z,-3.81
2023-02-28T18:53:44.257Z,-3.88
2023-02-28T18:56:46.024Z,-3.94
2023-02-28T18:59:47.773Z,-3.99
2023-02-28T19:02:50.227Z,-4.02
2023-02-28T19:05:57.069Z,-4.07
2023-02-28T19:09:01.704Z,-4.13
2023-02-28T19:12:03.505Z,-4.18
2023-02-28T19:15:06.581Z,-4.20
2023-02-28T19:18:08.187Z,-4.21
2023-02-28T19:21:12.833Z,-4.25
2023-02-28T19:24:14.513Z,-4.29
2023-02-28T19:27:16.382Z,-4.31
2023-02-28T19:30:18.066Z,-4.33
2023-02-28T19:33:20.586Z,-4.35
2023-02-28T19:36:22.363Z,-4.39
2023-02-28T19:39:23.865Z,-4.45
2023-02-28T19:42:25.723Z,-4.52
2023-02-28T19:45:27.570Z,-4.59
2023-02-28T19:48:29.485Z,-4.66
2023-02-28T19:51:31.125Z,-4.74
2023-02-28T19:54:33.306Z,-4.80
2023-02-28T19:57:35.238Z,-4.84
2023-02-28T20:00:37.157Z,-4.90
2023-02-28T20:03:38.860Z,-4.95
2023-02-28T20:06:40.635Z,-4.97
2023-02-28T20:09:42.360Z,-4.97
2023-02-28T20:12:44.264Z,-4.97
2023-02-28T20:15:48.724Z,-4.97
2023-02-28T20:18:51.434Z,-4.99
2023-02-28T20:21:54.003Z,-5.01
2023-02-28T20:24:56.622Z,-5.04
2023-02-28T20:27:58.367Z,-5.07
2023-02-28T20:31:02.819Z,-5.07
2023-02-28T20:34:05.318Z,-5.09
2023-02-28T20:37:12.777Z,-5.09
2023-02-28T20:40:14.643Z,-5.00
2023-02-28T20:43:16.079Z,-4.98
2023-02-28T20:46:17.908Z,-5.07
2023-02-28T20:49:19.645Z,-5.15
2023-02-28T20:52:21.324Z,-5.20
2023-02-28T20:55:23.061Z,-5.26
2023-02-28T20:58:26.413Z,-5.28
2023-02-28T21:01:29.414Z,-5.26
2023-02-28T21:04:31.262Z,-5.28
2023-02-28T21:07:32.996Z,-5.31
2023-02-28T21:10:38.780Z,-5.35
2023-02-28T21:13:41.812Z,-5.36
2023-02-28T21:16:43.942Z,-5.39
2023-02-28T21:19:46.212Z,-5.43
2023-02-28T21:22:48.737Z,-5.39
2023-02-28T21:25:50.560Z,-5.32
2023-02-28T21:28:56.171Z,-5.31
2023-02-28T21:31:57.937Z,-5.30
2023-02-28T21:34:59.446Z,-5.25
2023-02-28T21:38:01.013Z,-5.21
2023-02-28T21:41:12.355Z,-5.17
2023-02-28T21:44:14.555Z,-5.13
2023-02-28T21:47:16.253Z,-5.14
2023-02-28T21:50:17.961Z,-5.18
2023-02-28T21:53:19.580Z,-5.20
2023-02-28T21:56:25.422Z,-5.20
2023-02-28T21:59:27.534Z,-5.22
2023-02-28T22:02:30.380Z,-5.22
2023-02-28T22:05:32.069Z,-5.18
2023-02-28T22:08:33.848Z,-5.15
2023-02-28T22:11:37.267Z,-5.16
2023-02-28T22:14:39.821Z,-5.15
2023-02-28T22:17:41.979Z,-5.16
2023-02-28T22:20:43.522Z,-5.19
2023-02-28T22:23:45.950Z,-5.23
2023-02-28T22:26:49.715Z,-5.27
2023-02-28T22:29:51.351Z,-5.32
2023-02-28T22:32:52.983Z,-5.34
2023-02-28T22:35:54.896Z,-5.37
2023-02-28T22:38:57.400Z,-5.41
2023-02-28T22:41:59.063Z,-5.45
2023-02-28T22:45:00.666Z,-5.53
2023-02-28T22:48:04.258Z,-5.58
2023-02-28T22:51:10.619Z,-5.64
2023-02-28T22:54:12.798Z,-5.68
2023-02-28T22:57:14.531Z,-5.73
2023-02-28T23:00:16.594Z,-5.77
2023-02-28T23:03:18.168Z,-5.79
2023-02-28T23:06:42.041Z,-5.80
2023-02-28T23:09:43.637Z,-5.82
2023-02-28T23:12:45.180Z,-5.84
2023-02-28T23:15:47.427Z,-5.86
2023-02-28T23:18:49.417Z,-5.87
2023-02-28T23:21:51.101Z,-5.89
2023-02-28T23:24:52.669Z,-5.90
2023-02-28T23:27:54.333Z,-5.88
2023-02-28T23:30:55.870Z,-5.87
2023-02-28T23:33:57.659Z,-5.90
2023-02-28T23:37:01.316Z,-5.91
2023-02-28T23:40:04.673Z,-5.92
2023-02-28T23:43:06.242Z,-5.93
2023-02-28T23:46:08.904Z,-5.94
2023-02-28T23:49:10.718Z,-5.93
2023-02-28T23:52:12.466Z,-5.92
2023-02-28T23:55:14.049Z,-5.94
2023-02-28T23:58:15.996Z,-5.95
